Time;durP1;ratioP1;P1;durP2;ratioP2;P2;SDS_P1;SDS_P2;PMS_P1;PMS_P2;Temp;Humidity;BMP_temperature;BMP_pressure;BME280_temperature;BME280_humidity;BME280_pressure;Samples;Min_cycle;Max_cycle;Signal;HPM_P1;HPM_P2
2022/12/05 00:01:48;;;;;;;74.45;31.33;;;;;;;2.64;100.00;101380.06;4842188;29;20252;-72
2022/12/05 00:04:18;;;;;;;76.57;28.05;;;;;;;2.68;100.00;101372.59;4846683;29;20203;-74
2022/12/05 00:06:48;;;;;;;75.10;30.63;;;;;;;2.72;100.00;101364.16;4843136;29;20200;-74
2022/12/05 00:09:18;;;;;;;83.57;31.27;;;;;;;2.69;100.00;101369.81;4864744;29;20191;-74
2022/12/05 00:11:49;;;;;;;70.05;30.52;;;;;;;2.73;100.00;101371.22;4837965;29;20204;-72
2022/12/05 00:14:19;;;;;;;61.85;26.35;;;;;;;2.73;100.00;101365.88;4842511;29;20207;-74
2022/12/05 00:16:48;;;;;;;76.78;31.42;;;;;;;2.77;100.00;101366.41;4837410;29;20299;-72
2022/12/05 00:19:21;;;;;;;71.22;30.45;;;;;;;2.77;100.00;101377.97;4841983;29;20271;-74
2022/12/05 00:21:51;;;;;;;89.35;33.28;;;;;;;2.74;100.00;101374.72;4851406;29;20231;-73
2022/12/05 00:24:28;;;;;;;85.30;29.60;;;;;;;2.75;100.00;101374.59;4863478;29;20195;-73
2022/12/05 00:27:00;;;;;;;86.68;33.17;;;;;;;2.77;100.00;101380.63;4825710;29;20200;-73
2022/12/05 00:29:33;;;;;;;87.18;28.40;;;;;;;2.73;100.00;101381.06;4827677;29;20200;-74
2022/12/05 00:32:04;;;;;;;76.97;31.15;;;;;;;2.72;100.00;101380.19;4854928;29;20215;-74
2022/12/05 00:34:34;;;;;;;72.82;28.23;;;;;;;2.75;100.00;101381.78;4842367;29;20690;-72
2022/12/05 00:37:04;;;;;;;71.97;28.42;;;;;;;2.72;100.00;101390.91;4863284;29;20554;-74
2022/12/05 00:39:34;;;;;;;77.60;31.90;;;;;;;2.69;100.00;101380.50;4836856;29;20210;-73
2022/12/05 00:42:12;;;;;;;72.47;31.77;;;;;;;2.71;100.00;101381.19;4850277;29;20693;-73
2022/12/05 00:44:43;;;;;;;77.50;31.33;;;;;;;2.70;100.00;101382.19;4834867;29;20210;-74
2022/12/05 00:47:15;;;;;;;72.57;27.50;;;;;;;2.74;100.00;101372.91;4862602;29;20196;-75
2022/12/05 00:49:46;;;;;;;68.82;28.45;;;;;;;2.70;100.00;101376.00;4844016;29;20207;-74
2022/12/05 00:52:19;;;;;;;72.95;30.42;;;;;;;2.71;100.00;101375.84;4845103;29;20224;-73
2022/12/05 00:54:49;;;;;;;72.20;31.58;;;;;;;2.72;100.00;101374.84;4841472;29;20204;-74
2022/12/05 00:57:21;;;;;;;86.35;33.33;;;;;;;2.74;100.00;101377.41;4832810;29;20245;-74
2022/12/05 00:59:51;;;;;;;76.93;31.67;;;;;;;2.74;100.00;101377.41;4836433;29;20231;-74
2022/12/05 01:02:22;;;;;;;80.97;31.20;;;;;;;2.78;100.00;101376.97;4839463;29;20728;-75
2022/12/05 01:04:52;;;;;;;83.85;33.42;;;;;;;2.76;100.00;101376.25;4850416;29;20280;-75
2022/12/05 01:07:21;;;;;;;88.68;40.17;;;;;;;2.72;100.00;101374.00;4828390;29;20208;-73
2022/12/05 01:09:52;;;;;;;95.78;39.80;;;;;;;2.75;100.00;101369.25;4828114;29;20295;-74
2022/12/05 01:12:26;;;;;;;100.85;35.33;;;;;;;2.78;100.00;101368.97;4832885;29;20275;-74
2022/12/05 01:14:58;;;;;;;81.93;32.40;;;;;;;2.79;100.00;101361.78;4852255;29;20237;-72
2022/12/05 01:17:30;;;;;;;73.28;33.75;;;;;;;2.81;100.00;101357.97;4851106;29;20214;-74
2022/12/05 01:20:00;;;;;;;81.20;29.00;;;;;;;2.78;100.00;101357.44;4838943;29;20202;-73
2022/12/05 01:22:33;;;;;;;76.38;30.02;;;;;;;2.85;100.00;101361.25;4827739;29;20255;-73
2022/12/05 01:25:03;;;;;;;96.82;38.33;;;;;;;2.82;100.00;101353.47;4843683;29;20377;-73
2022/12/05 01:27:38;;;;;;;62.13;30.60;;;;;;;2.83;100.00;101353.34;4851607;29;20211;-72
2022/12/05 01:30:09;;;;;;;83.32;33.33;;;;;;;2.86;100.00;101347.72;4843925;29;20196;-73
2022/12/05 01:32:40;;;;;;;67.15;28.60;;;;;;;2.92;100.00;101352.50;4843227;29;20323;-73
2022/12/05 01:35:10;;;;;;;88.60;31.50;;;;;;;2.78;100.00;101346.72;4833710;29;20230;-74
2022/12/05 01:37:40;;;;;;;70.82;30.17;;;;;;;2.86;100.00;101355.72;4827833;29;20618;-74
2022/12/05 01:40:12;;;;;;;74.70;32.70;;;;;;;2.87;100.00;101351.22;4843505;29;20297;-72
2022/12/05 01:42:45;;;;;;;70.45;27.33;;;;;;;2.81;100.00;101349.97;4852849;29;20758;-73
2022/12/05 01:45:26;;;;;;;66.10;28.23;;;;;;;2.85;100.00;101348.72;4844054;29;20219;-73
2022/12/05 01:48:05;;;;;;;60.90;28.95;;;;;;;2.87;100.00;101348.56;4827665;29;20211;-73
2022/12/05 01:50:36;;;;;;;68.43;27.60;;;;;;;2.86;100.00;101347.72;4830732;29;20255;-74
2022/12/05 01:53:06;;;;;;;61.42;29.27;;;;;;;2.83;100.00;101348.00;4834638;29;20723;-74
2022/12/05 01:55:36;;;;;;;83.47;31.80;;;;;;;2.82;100.00;101351.66;4833115;29;20216;-73
2022/12/05 01:58:12;;;;;;;78.35;30.55;;;;;;;2.87;100.00;101346.72;4827786;29;20220;-73
2022/12/05 02:00:46;;;;;;;76.47;34.83;;;;;;;2.83;100.00;101348.00;4827450;29;20214;-74
2022/12/05 02:03:20;;;;;;;77.15;33.95;;;;;;;2.88;100.00;101343.06;4827403;29;20268;-72
2022/12/05 02:05:55;;;;;;;61.00;27.67;;;;;;;2.91;100.00;101342.78;4827177;29;20298;-72
2022/12/05 02:08:27;;;;;;;79.38;34.72;;;;;;;2.90;100.00;101346.47;4836845;29;20717;-73
2022/12/05 02:10:58;;;;;;;78.28;30.83;;;;;;;2.87;100.00;101337.88;4843657;29;20279;-73
2022/12/05 02:13:58;;;;;;;75.82;31.65;;;;;;;2.87;100.00;101341.38;4827340;29;20228;-74
2022/12/05 02:16:39;;;;;;;75.68;27.48;;;;;;;2.86;100.00;101347.72;4816071;29;20633;-73
2022/12/05 02:19:42;;;;;;;87.78;32.53;;;;;;;2.96;100.00;101343.19;4861596;29;20723;-73
2022/12/05 02:22:51;;;;;;;75.88;29.33;;;;;;;2.89;100.00;101334.09;4848367;29;20740;-74
2022/12/05 02:26:04;;;;;;;58.83;26.40;;;;;;;2.87;100.00;101338.72;4828092;29;20227;-75
2022/12/05 02:28:56;;;;;;;67.28;27.95;;;;;;;2.91;100.00;101342.78;4828274;29;20685;-73
2022/12/05 02:31:34;;;;;;;71.78;26.95;;;;;;;2.88;100.00;101337.72;4828590;29;20235;-73
2022/12/05 02:34:18;;;;;;;74.25;31.80;;;;;;;2.89;100.00;101339.44;4843139;29;20191;-73
2022/12/05 02:36:54;;;;;;;72.07;30.13;;;;;;;2.86;100.00;101337.00;4842815;29;20267;-72
2022/12/05 02:39:34;;;;;;;66.88;32.03;;;;;;;2.84;100.00;101336.34;4825974;29;20435;-73
2022/12/05 02:42:11;;;;;;;66.80;27.45;;;;;;;2.84;100.00;101341.69;4826108;29;20227;-74
2022/12/05 02:44:55;;;;;;;71.03;28.70;;;;;;;2.86;100.00;101339.69;4829983;29;20634;-74
2022/12/05 02:47:42;;;;;;;70.63;27.98;;;;;;;2.86;100.00;101345.03;4836940;29;20287;-74
2022/12/05 02:50:23;;;;;;;92.97;29.58;;;;;;;2.91;100.00;101347.28;4844285;29;20191;-74
2022/12/05 02:52:57;;;;;;;84.80;31.73;;;;;;;2.94;100.00;101353.22;4859522;29;20318;-73
2022/12/05 02:55:32;;;;;;;65.97;27.80;;;;;;;2.95;100.00;101341.50;4835520;29;20592;-73
2022/12/05 02:58:10;;;;;;;63.95;28.80;;;;;;;2.90;100.00;101340.28;4845607;29;20318;-73
2022/12/05 03:00:54;;;;;;;74.63;29.77;;;;;;;2.95;100.00;101338.84;4860358;29;20290;-74
2022/12/05 03:03:27;;;;;;;61.40;30.90;;;;;;;2.87;100.00;101330.69;4860443;29;20219;-75
2022/12/05 03:06:03;;;;;;;79.47;29.30;;;;;;;2.86;100.00;101329.00;4832528;29;20647;-72
2022/12/05 03:08:39;;;;;;;80.35;30.38;;;;;;;2.86;100.00;101322.81;4844606;29;20219;-73
2022/12/05 03:11:10;;;;;;;58.83;26.10;;;;;;;2.91;100.00;101321.41;4859971;29;20207;-73
2022/12/05 03:13:44;;;;;;;56.13;29.02;;;;;;;2.84;100.00;101325.66;4896657;24;20214;-78
2022/12/05 03:16:18;;;;;;;67.15;26.45;;;;;;;2.89;100.00;101323.38;4919052;29;20254;-79
2022/12/05 03:18:56;;;;;;;55.03;25.02;;;;;;;2.86;100.00;101317.47;4918870;29;20222;-77
2022/12/05 03:21:34;;;;;;;68.60;28.63;;;;;;;2.83;100.00;101313.25;4879708;29;20210;-78
2022/12/05 03:24:08;;;;;;;61.20;27.85;;;;;;;2.89;100.00;101318.03;4894294;29;20208;-80
2022/12/05 03:26:45;;;;;;;58.53;27.67;;;;;;;2.89;100.00;101310.03;4899718;29;20178;-77
2022/12/05 03:29:25;;;;;;;53.20;21.95;;;;;;;2.90;100.00;101311.72;4884665;29;20203;-77
2022/12/05 03:32:03;;;;;;;43.35;22.60;;;;;;;2.86;100.00;101323.66;4887186;29;20223;-78
2022/12/05 03:34:51;;;;;;;57.03;30.10;;;;;;;2.90;100.00;101325.09;4903454;29;20187;-78
2022/12/05 03:37:27;;;;;;;61.83;24.50;;;;;;;2.91;100.00;101324.06;4903517;29;20274;-76
2022/12/05 03:40:06;;;;;;;57.78;24.75;;;;;;;2.92;100.00;101323.09;4885204;29;20230;-79
2022/12/05 03:42:38;;;;;;;44.03;19.95;;;;;;;2.88;100.00;101321.69;4901627;29;20187;-78
2022/12/05 03:45:11;;;;;;;64.63;22.95;;;;;;;2.91;100.00;101321.41;4898982;29;20179;-79
2022/12/05 03:47:46;;;;;;;51.97;23.85;;;;;;;2.89;100.00;101315.38;4899547;29;20612;-79
2022/12/05 03:50:23;;;;;;;50.65;22.30;;;;;;;2.94;100.00;101321.13;4902696;29;20221;-79
2022/12/05 03:52:58;;;;;;;42.90;20.02;;;;;;;2.90;100.00;101322.41;4889237;29;20187;-82
2022/12/05 03:55:55;;;;;;;43.45;21.83;;;;;;;2.85;100.00;101316.66;4880630;29;20175;-81
2022/12/05 03:58:30;;;;;;;64.13;24.38;;;;;;;2.96;100.00;101320.97;4871212;29;20769;-80
2022/12/05 04:01:01;;;;;;;45.15;19.45;;;;;;;2.92;100.00;101316.91;4870108;29;20187;-79
2022/12/05 04:03:39;;;;;;;55.03;23.30;;;;;;;2.91;100.00;101316.06;4884582;29;20556;-81
2022/12/05 04:06:16;;;;;;;53.28;22.45;;;;;;;2.92;100.00;101311.56;4912191;29;20190;-80
2022/12/05 04:08:50;;;;;;;63.60;25.25;;;;;;;2.97;100.00;101311.97;4895090;29;20635;-77
2022/12/05 04:11:23;;;;;;;42.92;21.88;;;;;;;2.91;100.00;101312.53;4890938;29;20199;-80
2022/12/05 04:13:55;;;;;;;54.70;21.60;;;;;;;2.90;100.00;101313.53;4871763;29;20222;-78
2022/12/05 04:19:21;;;;;;;52.75;23.33;;;;;;;2.84;100.00;101312.28;4867657;29;20318;-80
2022/12/05 04:21:53;;;;;;;58.72;24.05;;;;;;;2.94;100.00;101310.44;4858965;29;20611;-80
2022/12/05 04:27:28;;;;;;;43.33;17.98;;;;;;;2.87;100.00;101314.66;4869817;29;20211;-80
2022/12/05 04:30:04;;;;;;;34.38;21.35;;;;;;;2.87;100.00;101309.31;4904660;29;20201;-79
2022/12/05 04:32:44;;;;;;;50.03;20.67;;;;;;;2.88;100.00;101311.00;4906093;29;20178;-77
2022/12/05 04:35:19;;;;;;;39.88;23.58;;;;;;;2.91;100.00;101310.69;4904769;29;20175;-77
2022/12/05 04:37:55;;;;;;;43.45;22.60;;;;;;;2.95;100.00;101312.09;4911827;29;20216;-77
2022/12/05 04:40:30;;;;;;;48.28;21.67;;;;;;;2.86;100.00;101315.63;4894712;29;20218;-77
2022/12/05 04:43:02;;;;;;;50.42;23.67;;;;;;;2.91;100.00;101307.19;4907550;29;20214;-78
2022/12/05 04:45:35;;;;;;;53.80;22.27;;;;;;;2.85;100.00;101316.66;4923422;29;20190;-76
2022/12/05 04:48:10;;;;;;;44.22;21.27;;;;;;;2.86;100.00;101312.97;4923071;29;20194;-76
2022/12/05 04:50:42;;;;;;;45.75;22.42;;;;;;;2.79;100.00;101311.84;4922773;29;20193;-77
2022/12/05 04:53:15;;;;;;;40.13;20.35;;;;;;;2.82;100.00;101316.91;4911174;29;20178;-81
2022/12/05 04:55:51;;;;;;;45.92;21.13;;;;;;;2.93;100.00;101316.75;4890082;29;20265;-80
2022/12/05 04:58:24;;;;;;;53.97;20.55;;;;;;;2.93;100.00;101311.41;4896973;29;20288;-78
2022/12/05 05:00:59;;;;;;;44.08;19.50;;;;;;;2.93;100.00;101313.25;4890832;29;20203;-80
2022/12/05 05:03:34;;;;;;;41.70;19.00;;;;;;;2.87;100.00;101306.63;4908319;29;20189;-81
2022/12/05 05:06:04;;;;;;;38.83;20.75;;;;;;;2.92;100.00;101315.06;4891533;29;20201;-78
2022/12/05 05:08:34;;;;;;;42.33;19.50;;;;;;;2.90;100.00;101319.75;4898160;29;20223;-80
2022/12/05 05:11:13;;;;;;;46.05;19.63;;;;;;;2.97;100.00;101312.81;4885087;29;20196;-81
2022/12/05 05:13:42;;;;;;;45.63;19.63;;;;;;;2.94;100.00;101313.13;4871534;29;20222;-80
2022/12/05 05:16:18;;;;;;;37.97;16.80;;;;;;;2.93;100.00;101315.91;4889531;29;20225;-80
2022/12/05 05:18:48;;;;;;;37.65;20.10;;;;;;;2.97;100.00;101318.16;4876159;29;20225;-80
2022/12/05 05:21:21;;;;;;;47.95;21.80;;;;;;;3.00;100.00;101315.19;4892326;29;20195;-80
2022/12/05 05:23:52;;;;;;;49.70;21.52;;;;;;;2.98;100.00;101317.19;4907533;29;20245;-80
2022/12/05 05:26:23;;;;;;;38.97;18.35;;;;;;;3.01;100.00;101324.91;4871939;29;20679;-82
2022/12/05 05:28:53;;;;;;;35.65;17.08;;;;;;;2.94;100.00;101315.78;4870491;29;20219;-79
2022/12/05 05:31:23;;;;;;;40.85;19.40;;;;;;;2.95;100.00;101312.09;4900213;29;20285;-80
2022/12/05 05:33:53;;;;;;;35.05;18.58;;;;;;;2.95;100.00;101311.28;4907732;29;20586;-81
2022/12/05 05:36:28;;;;;;;35.70;15.05;;;;;;;2.90;100.00;101319.75;4909468;29;20239;-81
2022/12/05 05:39:01;;;;;;;42.72;18.75;;;;;;;2.94;100.00;101314.94;4894759;29;20217;-79
2022/12/05 05:41:36;;;;;;;35.38;16.27;;;;;;;2.94;100.00;101307.75;4895000;29;20194;-81
2022/12/05 05:44:06;;;;;;;41.70;18.58;;;;;;;2.99;100.00;101323.38;4896510;29;20183;-80
2022/12/05 05:46:38;;;;;;;29.67;15.30;;;;;;;2.97;100.00;101320.84;4890124;29;20267;-80
2022/12/05 05:49:09;;;;;;;32.25;16.88;;;;;;;3.01;100.00;101319.56;4880697;29;20634;-81
2022/12/05 05:51:38;;;;;;;38.30;16.35;;;;;;;3.09;100.00;101312.66;4897710;29;20187;-81
2022/12/05 05:54:10;;;;;;;42.03;15.30;;;;;;;3.09;100.00;101313.50;4889266;29;20206;-79
2022/12/05 05:56:40;;;;;;;32.65;15.13;;;;;;;3.03;100.00;101312.25;4897729;29;20211;-80
2022/12/05 05:59:15;;;;;;;37.05;17.83;;;;;;;2.99;100.00;101318.03;4891951;29;20194;-79
2022/12/05 06:01:44;;;;;;;27.35;13.07;;;;;;;2.97;100.00;101314.63;4884047;29;20269;-79
2022/12/05 06:04:13;;;;;;;24.58;15.02;;;;;;;3.00;100.00;101317.06;4909324;29;20222;-79
2022/12/05 06:06:43;;;;;;;28.83;14.85;;;;;;;3.01;100.00;101324.06;4903869;29;20262;-79
2022/12/05 06:09:13;;;;;;;25.80;13.35;;;;;;;2.99;100.00;101324.22;4910979;29;20198;-77
2022/12/05 06:11:42;;;;;;;30.55;15.00;;;;;;;3.02;100.00;101323.94;4912917;29;20206;-79
2022/12/05 06:14:14;;;;;;;24.33;14.73;;;;;;;3.04;100.00;101326.47;4916251;29;20218;-78
2022/12/05 06:16:43;;;;;;;22.45;12.77;;;;;;;3.01;100.00;101327.56;4901265;29;20170;-78
2022/12/05 06:19:13;;;;;;;28.35;13.65;;;;;;;3.03;100.00;101330.13;4894610;29;20297;-81
2022/12/05 06:21:42;;;;;;;26.08;12.18;;;;;;;3.03;100.00;101325.63;4897472;29;20284;-80
2022/12/05 06:24:12;;;;;;;23.70;13.75;;;;;;;3.02;100.00;101334.63;4889582;29;20191;-79
2022/12/05 06:26:42;;;;;;;28.88;14.13;;;;;;;3.10;100.00;101322.38;4894526;29;20222;-79
2022/12/05 06:29:11;;;;;;;16.77;12.25;;;;;;;3.11;100.00;101332.06;4899174;29;20204;-81
2022/12/05 06:31:42;;;;;;;17.50;12.60;;;;;;;3.04;100.00;101330.00;4888016;29;20202;-78
2022/12/05 06:34:11;;;;;;;18.52;11.48;;;;;;;3.09;100.00;101334.06;4906356;29;20665;-80
2022/12/05 06:36:41;;;;;;;21.13;11.93;;;;;;;3.12;100.00;101331.09;4897176;29;20655;-77
2022/12/05 06:39:10;;;;;;;24.52;12.05;;;;;;;3.10;100.00;101335.75;4900778;29;20218;-80
2022/12/05 06:41:40;;;;;;;21.30;11.40;;;;;;;3.14;100.00;101332.66;4868587;29;20219;-81
2022/12/05 06:44:10;;;;;;;27.38;15.30;;;;;;;3.14;100.00;101343.34;4880460;29;20198;-80
2022/12/05 06:46:40;;;;;;;21.25;12.65;;;;;;;3.22;100.00;101339.94;4901072;29;20249;-79
2022/12/05 06:49:11;;;;;;;23.20;12.02;;;;;;;3.12;100.00;101344.44;4895761;29;20206;-79
2022/12/05 06:51:40;;;;;;;15.73;11.20;;;;;;;3.13;100.00;101343.47;4890209;29;20191;-79
2022/12/05 06:54:11;;;;;;;16.38;9.88;;;;;;;3.25;100.00;101355.69;4851217;29;20194;-79
2022/12/05 06:56:42;;;;;;;33.90;11.48;;;;;;;3.15;100.00;101349.53;4856244;29;20207;-78
2022/12/05 06:59:11;;;;;;;26.80;13.20;;;;;;;3.24;100.00;101354.88;4875673;29;20226;-79
2022/12/05 07:01:40;;;;;;;21.45;13.90;;;;;;;3.24;100.00;101364.72;4879980;29;20509;-79
2022/12/05 07:04:16;;;;;;;24.08;12.15;;;;;;;3.21;100.00;101355.13;4900457;29;20205;-79
2022/12/05 07:06:49;;;;;;;26.70;13.48;;;;;;;3.25;100.00;101361.03;4905394;29;20195;-80
2022/12/05 07:09:21;;;;;;;24.27;12.68;;;;;;;3.31;100.00;101363.16;4906788;29;20190;-78
2022/12/05 07:11:52;;;;;;;31.60;14.95;;;;;;;3.27;100.00;101359.06;4914092;29;20219;-80
2022/12/05 07:14:21;;;;;;;24.05;14.57;;;;;;;3.20;100.00;101358.78;4897395;29;20217;-78
2022/12/05 07:17:12;;;;;;;26.55;13.55;;;;;;;3.16;100.00;101353.88;4914698;29;20221;-79
2022/12/05 07:19:44;;;;;;;24.20;10.93;;;;;;;3.12;100.00;101361.34;4872955;29;20176;-78
2022/12/05 07:22:15;;;;;;;21.20;12.60;;;;;;;3.06;100.00;101362.75;4882934;29;20199;-78
2022/12/05 07:24:46;;;;;;;20.52;11.73;;;;;;;3.12;100.00;101361.34;4868687;29;20204;-78
2022/12/05 07:27:17;;;;;;;20.85;12.73;;;;;;;3.04;100.00;101364.75;4907008;29;20225;-79
2022/12/05 07:29:57;;;;;;;16.10;11.55;;;;;;;3.06;100.00;101357.41;4899349;29;20194;-77
2022/12/05 07:32:31;;;;;;;22.65;13.75;;;;;;;3.03;100.00;101373.75;4903863;29;20198;-78
2022/12/05 07:35:00;;;;;;;29.63;14.02;;;;;;;3.16;100.00;101368.09;4898714;29;20206;-78
2022/12/05 07:37:29;;;;;;;32.33;14.63;;;;;;;3.12;100.00;101371.19;4893523;29;20248;-80
2022/12/05 07:39:59;;;;;;;18.92;12.38;;;;;;;3.04;100.00;101370.09;4882259;29;20222;-80
2022/12/05 07:42:30;;;;;;;25.20;12.68;;;;;;;3.05;100.00;101366.41;4881013;29;20198;-77
2022/12/05 07:44:59;;;;;;;24.95;12.90;;;;;;;3.06;100.00;101370.78;4871185;29;20207;-78
2022/12/05 07:47:30;;;;;;;22.83;11.65;;;;;;;3.14;100.00;101369.25;4882929;29;20302;-78
2022/12/05 07:49:59;;;;;;;23.58;12.35;;;;;;;3.14;100.00;101372.75;4879938;29;20282;-77
2022/12/05 07:52:31;;;;;;;18.73;11.25;;;;;;;3.10;100.00;101368.66;4871943;29;20188;-78
2022/12/05 07:55:00;;;;;;;30.27;11.32;;;;;;;3.03;100.00;101372.91;4890618;29;20205;-78
2022/12/05 07:57:31;;;;;;;26.73;14.07;;;;;;;3.04;100.00;101369.25;4889025;29;20219;-78
2022/12/05 08:00:00;;;;;;;24.88;11.60;;;;;;;3.13;100.00;101367.53;4889379;29;20227;-77
2022/12/05 08:02:40;;;;;;;21.05;11.77;;;;;;;3.06;100.00;101368.09;4890370;29;20694;-79
2022/12/05 08:05:10;;;;;;;23.80;12.25;;;;;;;3.10;100.00;101375.88;4871232;29;20587;-79
2022/12/05 08:07:39;;;;;;;22.13;11.25;;;;;;;3.12;100.00;101365.84;4868864;29;20223;-79
2022/12/05 08:10:09;;;;;;;18.10;11.38;;;;;;;3.13;100.00;101372.88;4886899;29;20285;-78
2022/12/05 08:12:40;;;;;;;22.90;12.32;;;;;;;3.10;100.00;101373.19;4888462;29;20367;-78
2022/12/05 08:15:10;;;;;;;19.60;12.73;;;;;;;3.10;100.00;101370.50;4881153;29;20198;-79
2022/12/05 08:17:41;;;;;;;27.88;15.25;;;;;;;3.10;100.00;101378.53;4881002;29;20207;-78
2022/12/05 08:20:13;;;;;;;30.25;12.00;;;;;;;3.18;100.00;101365.28;4876342;29;20609;-77
2022/12/05 08:22:42;;;;;;;20.85;10.70;;;;;;;3.12;100.00;101373.88;4878222;29;20536;-79
2022/12/05 08:25:11;;;;;;;19.10;11.55;;;;;;;3.24;100.00;101375.41;4882556;29;20234;-79
2022/12/05 08:27:42;;;;;;;30.73;14.40;;;;;;;3.24;100.00;101375.41;4870338;29;20223;-82
2022/12/05 08:30:11;;;;;;;22.05;13.98;;;;;;;3.27;100.00;101375.13;4864011;29;20277;-82
2022/12/05 08:32:41;;;;;;;21.33;13.52;;;;;;;3.18;100.00;101376.84;4893402;29;20218;-81
2022/12/05 08:35:10;;;;;;;23.05;12.80;;;;;;;3.25;100.00;101377.09;4865896;29;20255;-82
2022/12/05 08:37:39;;;;;;;30.13;15.88;;;;;;;3.17;100.00;101374.28;4875707;29;20298;-81
2022/12/05 08:40:09;;;;;;;24.73;14.50;;;;;;;3.25;100.00;101377.94;4883737;29;20250;-82
2022/12/05 08:42:39;;;;;;;28.98;13.45;;;;;;;3.30;100.00;101370.31;4898430;29;20252;-81
2022/12/05 08:45:10;;;;;;;25.02;15.38;;;;;;;3.21;100.00;101367.66;4884612;29;20199;-80
2022/12/05 08:47:39;;;;;;;28.52;12.90;;;;;;;3.23;100.00;101365.69;4877186;29;20239;-77
2022/12/05 08:50:09;;;;;;;20.20;14.13;;;;;;;3.23;100.00;101368.38;4894408;29;20207;-76
2022/12/05 08:52:38;;;;;;;32.45;15.15;;;;;;;3.25;100.00;101367.22;4893706;29;20199;-75
2022/12/05 08:55:08;;;;;;;26.35;13.50;;;;;;;3.24;100.00;101370.06;4901136;29;20198;-75
2022/12/05 08:57:38;;;;;;;21.98;11.65;;;;;;;3.21;100.00;101375.69;4910931;24;20230;-73
2022/12/05 09:00:11;;;;;;;30.75;14.57;;;;;;;3.29;100.00;101373.16;4872643;29;20226;-74
2022/12/05 09:02:41;;;;;;;19.00;12.25;;;;;;;3.32;100.00;101367.50;4874454;29;20210;-73
2022/12/05 09:05:12;;;;;;;19.73;10.63;;;;;;;3.29;100.00;101362.47;4888917;29;20195;-75
2022/12/05 09:07:58;;;;;;;21.08;11.35;;;;;;;3.40;100.00;101364.94;4884117;29;20197;-74
2022/12/05 09:10:54;;;;;;;22.02;12.70;;;;;;;3.36;100.00;101368.91;4882868;29;20190;-72
2022/12/05 09:13:24;;;;;;;24.63;13.30;;;;;;;3.49;100.00;101370.28;4841314;29;20206;-73
2022/12/05 09:15:54;;;;;;;23.63;12.43;;;;;;;3.41;100.00;101366.66;4851537;29;20187;-73
2022/12/05 09:18:23;;;;;;;19.45;11.30;;;;;;;3.41;100.00;101367.50;4841785;29;20267;-73
2022/12/05 09:20:52;;;;;;;18.63;10.98;;;;;;;3.42;100.00;101363.00;4841055;29;20220;-73
2022/12/05 09:23:21;;;;;;;24.30;12.25;;;;;;;3.36;100.00;101364.41;4827198;29;20193;-73
2022/12/05 09:25:56;;;;;;;15.75;11.00;;;;;;;3.39;100.00;101366.78;4829663;29;20263;-74
2022/12/05 09:28:25;;;;;;;22.33;12.00;;;;;;;3.37;100.00;101370.59;4841070;29;20193;-74
2022/12/05 09:31:01;;;;;;;20.75;10.48;;;;;;;3.47;100.00;101353.53;4825443;29;20212;-72
2022/12/05 09:33:32;;;;;;;23.40;12.27;;;;;;;3.39;100.00;101363.25;4839805;29;20272;-74
2022/12/05 09:36:03;;;;;;;18.77;11.68;;;;;;;3.41;100.00;101355.94;4827040;29;20203;-72
2022/12/05 09:38:32;;;;;;;22.85;11.95;;;;;;;3.42;100.00;101357.63;4823124;29;20583;-72
2022/12/05 09:41:12;;;;;;;17.92;11.68;;;;;;;3.41;100.00;101369.31;4816361;29;20740;-73
2022/12/05 09:43:50;;;;;;;16.70;10.45;;;;;;;3.48;100.00;101354.38;4827402;29;20192;-73
2022/12/05 09:46:29;;;;;;;23.63;12.25;;;;;;;3.53;100.00;101359.31;4822509;29;20698;-71
2022/12/05 09:49:05;;;;;;;25.98;14.30;;;;;;;3.52;100.00;101361.13;4824174;29;20257;-72
2022/12/05 09:51:37;;;;;;;24.45;12.10;;;;;;;3.52;100.00;101362.97;4838029;29;20217;-72
2022/12/05 09:54:06;;;;;;;24.00;13.77;;;;;;;3.52;100.00;101366.47;4828422;29;20200;-72
2022/12/05 09:56:35;;;;;;;19.10;11.68;;;;;;;3.54;100.00;101359.13;4824431;29;20275;-74
2022/12/05 09:59:04;;;;;;;19.52;13.00;;;;;;;3.60;100.00;101355.88;4824662;29;20200;-72
2022/12/05 10:01:41;;;;;;;30.13;13.35;;;;;;;3.63;100.00;101355.59;4823710;29;20761;-73
2022/12/05 10:04:33;;;;;;;24.92;13.82;;;;;;;3.61;100.00;101349.56;4821583;29;20204;-72
2022/12/05 10:07:10;;;;;;;24.67;12.73;;;;;;;3.65;100.00;101350.94;4824426;29;20231;-73
2022/12/05 10:09:58;;;;;;;20.20;11.80;;;;;;;3.64;100.00;101348.41;4823967;29;20655;-73
2022/12/05 10:12:50;;;;;;;20.08;13.23;;;;;;;3.69;100.00;101351.47;4827951;29;20237;-73
2022/12/05 10:15:29;;;;;;;37.45;15.25;;;;;;;3.71;100.00;101353.03;4823784;29;20225;-72
2022/12/05 10:18:03;;;;;;;22.50;14.35;;;;;;;3.66;100.00;101346.44;4830071;29;20220;-72
2022/12/05 10:20:39;;;;;;;21.52;12.00;;;;;;;3.67;100.00;101346.28;4823534;29;20205;-73
2022/12/05 10:23:17;;;;;;;21.05;11.85;;;;;;;3.70;100.00;101348.66;4829830;29;20212;-72
2022/12/05 10:26:11;;;;;;;23.02;13.07;;;;;;;3.70;100.00;101345.16;4831010;29;20204;-72
2022/12/05 10:28:47;;;;;;;20.92;12.93;;;;;;;3.65;100.00;101347.41;4827020;29;20581;-72
2022/12/05 10:31:24;;;;;;;17.75;12.13;;;;;;;3.72;100.00;101349.38;4851827;29;20238;-73
2022/12/05 10:34:02;;;;;;;21.50;11.32;;;;;;;3.73;100.00;101350.19;4829313;29;20193;-74
2022/12/05 10:36:32;;;;;;;21.00;10.85;;;;;;;3.76;100.00;101350.78;4827013;29;20271;-74
2022/12/05 10:39:55;;;;;;;20.55;11.93;;;;;;;3.78;100.00;101348.78;4833592;29;20211;-74
2022/12/05 10:42:28;;;;;;;15.68;9.75;;;;;;;3.82;100.00;101349.34;4830703;29;20216;-73
2022/12/05 10:45:00;;;;;;;23.33;11.73;;;;;;;3.85;100.00;101355.22;4840243;29;20218;-74
2022/12/05 10:47:30;;;;;;;22.15;13.68;;;;;;;3.81;100.00;101345.81;4835311;29;20205;-73
2022/12/05 10:50:04;;;;;;;24.27;12.15;;;;;;;3.86;100.00;101338.19;4836479;29;20201;-72
2022/12/05 10:52:35;;;;;;;21.17;12.32;;;;;;;3.92;100.00;101337.56;4836402;29;20299;-74
2022/12/05 10:55:30;;;;;;;22.38;14.45;;;;;;;3.89;100.00;101345.91;4842978;29;20287;-73
2022/12/05 10:58:13;;;;;;;21.67;14.23;;;;;;;3.89;100.00;101345.06;4826583;29;20667;-74
2022/12/05 11:00:50;;;;;;;29.08;16.02;;;;;;;3.96;100.00;101339.97;4841193;29;20657;-73
2022/12/05 11:03:27;;;;;;;21.35;11.43;;;;;;;3.96;100.00;101345.31;4828008;29;20224;-74
2022/12/05 11:06:00;;;;;;;27.38;13.77;;;;;;;3.78;100.00;101346.09;4829939;29;20219;-74
2022/12/05 11:08:31;;;;;;;18.42;9.98;;;;;;;3.87;100.00;101337.16;4829435;29;20225;-72
2022/12/05 11:11:22;;;;;;;24.50;13.80;;;;;;;3.86;100.00;101343.53;4831644;29;20231;-73
2022/12/05 11:14:24;;;;;;;23.45;12.40;;;;;;;3.80;100.00;101336.09;4829540;29;20189;-72
2022/12/05 11:16:55;;;;;;;22.92;13.82;;;;;;;3.81;100.00;101332.44;4824212;29;20681;-73
2022/12/05 11:19:28;;;;;;;22.27;14.00;;;;;;;3.93;100.00;101336.59;4825245;29;20189;-72
2022/12/05 11:21:59;;;;;;;21.40;12.43;;;;;;;3.98;100.00;101341.50;4830127;29;20235;-73
2022/12/05 11:24:30;;;;;;;21.25;12.63;;;;;;;3.97;100.00;101330.94;4832976;29;20251;-73
2022/12/05 11:27:19;;;;;;;21.27;12.50;;;;;;;3.82;100.00;101326.09;4832354;29;20188;-74
2022/12/05 11:29:57;;;;;;;22.17;13.95;;;;;;;3.94;100.00;101327.56;4831204;29;20644;-74
2022/12/05 11:32:29;;;;;;;19.17;12.05;;;;;;;3.93;100.00;101325.88;4821291;29;20334;-73
2022/12/05 11:35:07;;;;;;;20.75;10.02;;;;;;;4.02;100.00;101323.31;4833484;29;20197;-73
2022/12/05 11:37:43;;;;;;;23.85;12.80;;;;;;;4.12;100.00;101324.06;4831251;29;20231;-75
2022/12/05 11:40:16;;;;;;;17.83;12.98;;;;;;;4.12;100.00;101322.25;4832855;29;20203;-73
2022/12/05 11:43:22;;;;;;;22.50;12.68;;;;;;;4.18;100.00;101336.88;4824379;29;20550;-74
2022/12/05 11:46:03;;;;;;;25.08;15.20;;;;;;;4.19;100.00;101326.03;4831138;29;20295;-74
2022/12/05 11:48:55;;;;;;;23.70;12.85;;;;;;;4.26;100.00;101331.63;4830967;29;20192;-75